createdAt,value
2022-10-17T00:01:16.210Z,101553.48
2022-10-17T00:06:18.869Z,101567.95
2022-10-17T00:11:23.036Z,101573.86
2022-10-17T00:16:32.431Z,101577.59
2022-10-17T00:21:35.106Z,101574.48
2022-10-17T00:26:37.777Z,101570.78
2022-10-17T00:31:40.913Z,101572.94
2022-10-17T00:36:43.651Z,101565.39
2022-10-17T00:41:46.315Z,101560.78
2022-10-17T00:46:48.952Z,101561.60
2022-10-17T00:52:00.175Z,101571.14
2022-10-17T00:57:02.957Z,101579.27
2022-10-17T01:02:14.402Z,101583.16
2022-10-17T01:07:17.216Z,101577.40
2022-10-17T01:12:46.389Z,101577.96
2022-10-17T01:18:21.483Z,101582.13
2022-10-17T01:24:08.483Z,101587.86
2022-10-17T01:29:37.936Z,101595.73
2022-10-17T01:35:02.618Z,101602.75
2022-10-17T01:40:26.011Z,101584.88
2022-10-17T01:45:37.232Z,101572.62
2022-10-17T01:50:45.716Z,101574.38
2022-10-17T01:55:48.623Z,101578.77
2022-10-17T02:00:51.448Z,101580.20
2022-10-17T02:05:54.656Z,101572.16
2022-10-17T02:11:01.814Z,101571.41
2022-10-17T02:16:42.722Z,101580.05
2022-10-17T02:21:55.116Z,101575.73
2022-10-17T02:27:13.850Z,101579.61
2022-10-17T02:37:30.666Z,101597.05
2022-10-17T02:42:33.729Z,101601.10
2022-10-17T02:47:43.650Z,101619.99
2022-10-17T02:53:03.722Z,101624.49
2022-10-17T02:58:14.928Z,101625.42
2022-10-17T03:03:24.323Z,101631.56
2022-10-17T03:08:27.182Z,101630.75
2022-10-17T03:13:30.202Z,101636.52
2022-10-17T03:18:33.459Z,101657.60
2022-10-17T03:23:36.198Z,101667.80
2022-10-17T03:28:38.989Z,101661.61
2022-10-17T03:33:41.777Z,101652.73
2022-10-17T03:38:44.617Z,101653.36
2022-10-17T03:43:47.387Z,101657.23
2022-10-17T03:48:50.241Z,101666.43
2022-10-17T03:53:52.916Z,101669.76
2022-10-17T03:58:56.036Z,101660.92
2022-10-17T04:03:58.653Z,101660.89
2022-10-17T04:09:01.652Z,101668.36
2022-10-17T04:14:04.534Z,101665.89
2022-10-17T04:19:07.251Z,101670.91
2022-10-17T04:24:11.574Z,101672.51
2022-10-17T04:29:15.229Z,101677.63
2022-10-17T04:34:17.979Z,101694.48
2022-10-17T04:39:20.757Z,101690.69
2022-10-17T04:44:23.925Z,101689.39
2022-10-17T04:49:26.616Z,101689.77
2022-10-17T04:54:29.252Z,101683.95
2022-10-17T04:59:31.981Z,101691.27
2022-10-17T05:04:34.731Z,101698.33
2022-10-17T05:09:37.443Z,101700.88
2022-10-17T05:14:40.139Z,101699.50
2022-10-17T05:19:42.849Z,101706.98
2022-10-17T05:24:45.484Z,101726.70
2022-10-17T05:29:48.923Z,101735.50
2022-10-17T05:34:51.630Z,101749.95
2022-10-17T05:39:54.389Z,101740.40
2022-10-17T05:45:03.387Z,101739.66
2022-10-17T05:50:07.694Z,101763.06
2022-10-17T05:55:11.467Z,101775.96
2022-10-17T06:00:14.328Z,101783.36
2022-10-17T06:05:18.505Z,101784.07
2022-10-17T06:10:21.281Z,101786.00
2022-10-17T06:15:26.482Z,101783.67
2022-10-17T06:20:29.156Z,101778.67
2022-10-17T06:25:32.560Z,101785.26
2022-10-17T06:30:35.239Z,101806.77
2022-10-17T06:35:38.306Z,101806.41
2022-10-17T06:40:41.074Z,101804.05
2022-10-17T06:45:45.724Z,101809.03
2022-10-17T06:50:48.536Z,101815.08
2022-10-17T06:56:01.489Z,101819.08
2022-10-17T07:01:10.654Z,101826.30
2022-10-17T07:06:13.442Z,101829.46
2022-10-17T07:11:19.181Z,101824.46
2022-10-17T07:16:22.517Z,101822.85
2022-10-17T07:21:25.386Z,101830.88
2022-10-17T07:26:28.161Z,101833.03
2022-10-17T07:31:31.626Z,101836.92
2022-10-17T07:36:34.334Z,101842.58
2022-10-17T07:41:37.792Z,101831.51
2022-10-17T07:46:40.586Z,101829.48
2022-10-17T07:51:43.434Z,101838.04
2022-10-17T07:56:50.603Z,101852.39
2022-10-17T08:01:56.609Z,101852.27
2022-10-17T08:07:18.364Z,101853.65
2022-10-17T08:12:24.311Z,101868.58
2022-10-17T08:17:27.185Z,101871.41
2022-10-17T08:22:30.289Z,101870.66
2022-10-17T08:27:35.238Z,101866.49
2022-10-17T08:32:38.004Z,101867.18
2022-10-17T08:37:41.839Z,101863.03
2022-10-17T08:43:13.010Z,101864.31
2022-10-17T08:48:21.853Z,101862.06
2022-10-17T08:53:45.367Z,101858.10
2022-10-17T08:58:48.052Z,101846.52
2022-10-17T09:04:41.985Z,101846.23
2022-10-17T09:10:10.351Z,101848.51
2022-10-17T09:15:31.413Z,101848.58
2022-10-17T09:20:39.108Z,101848.46
2022-10-17T09:25:45.121Z,101846.32
2022-10-17T09:31:02.343Z,101843.19
2022-10-17T09:36:32.902Z,101847.11
2022-10-17T09:41:46.528Z,101844.93
2022-10-17T09:47:28.469Z,101843.73
2022-10-17T09:52:36.764Z,101839.89
2022-10-17T09:57:58.558Z,101834.95
2022-10-17T10:03:20.459Z,101837.34
2022-10-17T10:08:23.634Z,101830.30
2022-10-17T10:13:27.045Z,101824.45
2022-10-17T10:18:35.868Z,101813.70
2022-10-17T10:23:41.463Z,101817.92
2022-10-17T10:29:00.110Z,101819.90
2022-10-17T10:34:20.500Z,101822.45
2022-10-17T10:39:42.712Z,101820.83
2022-10-17T10:44:45.377Z,101818.19
2022-10-17T10:49:48.224Z,101808.36
2022-10-17T10:55:01.207Z,101801.89
2022-10-17T11:00:17.481Z,101804.03
2022-10-17T11:05:43.171Z,101805.02
2022-10-17T11:11:18.048Z,101802.27
2022-10-17T11:16:55.974Z,101810.16
2022-10-17T11:22:09.581Z,101807.71
2022-10-17T11:27:12.282Z,101805.83
2022-10-17T11:32:47.854Z,101808.71
2022-10-17T11:38:24.306Z,101808.00
2022-10-17T11:43:34.268Z,101800.92
2022-10-17T11:48:52.782Z,101802.73
2022-10-17T11:54:07.393Z,101803.98
2022-10-17T11:59:42.574Z,101803.98
2022-10-17T12:05:18.533Z,101811.50
2022-10-17T12:10:45.141Z,101810.06
2022-10-17T12:15:47.992Z,101811.55
2022-10-17T12:21:00.539Z,101811.65
2022-10-17T12:26:05.883Z,101811.21
2022-10-17T12:31:23.166Z,101804.67
2022-10-17T12:36:28.088Z,101800.06
2022-10-17T12:41:40.072Z,101791.80
2022-10-17T12:46:57.454Z,101787.00
2022-10-17T12:52:22.229Z,101785.02
2022-10-17T12:58:00.845Z,101775.02
2022-10-17T13:03:23.059Z,101773.37
2022-10-17T13:08:34.303Z,101773.10
2022-10-17T13:14:05.505Z,101775.71
2022-10-17T13:19:18.979Z,101771.52
2022-10-17T13:24:37.194Z,101774.27
2022-10-17T13:29:44.139Z,101765.13
2022-10-17T13:34:46.806Z,101762.68
2022-10-17T13:39:55.610Z,101760.85
2022-10-17T13:45:00.886Z,101761.78
2022-10-17T13:50:09.459Z,101757.16
2022-10-17T13:55:22.024Z,101749.65
2022-10-17T14:00:25.073Z,101746.27
2022-10-17T14:05:27.993Z,101743.98
2022-10-17T14:10:32.572Z,101739.44
2022-10-17T14:15:36.447Z,101742.26
2022-10-17T14:26:13.993Z,101730.98
2022-10-17T14:31:30.178Z,101732.40
2022-10-17T14:36:38.470Z,101728.61
2022-10-17T14:41:45.973Z,101723.38
2022-10-17T14:46:52.689Z,101723.38
2022-10-17T14:52:18.627Z,101713.14
2022-10-17T14:57:31.588Z,101713.30
2022-10-17T15:02:34.935Z,101718.59
2022-10-17T15:07:37.689Z,101716.27
2022-10-17T15:12:47.917Z,101719.76
2022-10-17T15:18:00.578Z,101720.31
2022-10-17T15:23:03.390Z,101717.60
2022-10-17T15:28:06.135Z,101724.88
2022-10-17T15:33:09.370Z,101728.88
2022-10-17T15:38:13.840Z,101725.48
2022-10-17T15:43:19.842Z,101724.95
2022-10-17T15:48:28.299Z,101718.35
2022-10-17T15:53:31.593Z,101718.12
2022-10-17T15:58:37.609Z,101722.77
2022-10-17T16:03:40.485Z,101723.83
2022-10-17T16:08:43.157Z,101720.38
2022-10-17T16:13:51.697Z,101716.20
2022-10-17T16:18:54.637Z,101712.30
2022-10-17T16:23:57.341Z,101713.67
2022-10-17T16:29:03.591Z,101711.96
2022-10-17T16:34:06.879Z,101711.54
2022-10-17T16:39:09.632Z,101705.77
2022-10-17T16:44:15.601Z,101703.71
2022-10-17T16:49:18.373Z,101699.20
2022-10-17T16:54:21.804Z,101699.02
2022-10-17T16:59:24.523Z,101702.52
2022-10-17T17:04:27.262Z,101696.81
2022-10-17T17:09:30.039Z,101703.83
2022-10-17T17:14:32.778Z,101696.80
2022-10-17T17:19:35.494Z,101697.92
2022-10-17T17:24:38.212Z,101696.32
2022-10-17T17:29:40.984Z,101702.46
2022-10-17T17:34:43.693Z,101706.89
2022-10-17T17:39:46.401Z,101704.47
2022-10-17T17:44:49.741Z,101700.00
2022-10-17T17:49:52.410Z,101700.77
2022-10-17T17:54:55.682Z,101697.05
2022-10-17T17:59:58.501Z,101695.83
2022-10-17T18:05:01.456Z,101690.63
2022-10-17T18:10:05.276Z,101691.70
2022-10-17T18:15:08.837Z,101698.66
2022-10-17T18:20:12.125Z,101700.15
2022-10-17T18:25:15.044Z,101697.27
2022-10-17T18:30:19.233Z,101700.05
2022-10-17T18:35:24.421Z,101696.65
2022-10-17T18:40:28.275Z,101688.14
2022-10-17T18:45:31.083Z,101691.75
2022-10-17T18:50:34.266Z,101687.48
2022-10-17T18:55:39.690Z,101686.36
2022-10-17T19:00:42.480Z,101686.00
2022-10-17T19:05:46.336Z,101686.20
2022-10-17T19:10:49.084Z,101688.58
2022-10-17T19:15:51.717Z,101689.48
2022-10-17T19:20:54.360Z,101685.86
2022-10-17T19:26:12.000Z,101677.84
2022-10-17T19:31:16.996Z,101680.15
2022-10-17T19:36:22.188Z,101681.59
2022-10-17T19:41:27.093Z,101676.85
2022-10-17T19:46:31.103Z,101677.82
2022-10-17T19:51:34.018Z,101671.45
2022-10-17T19:56:38.047Z,101680.60
2022-10-17T20:01:41.463Z,101683.05
2022-10-17T20:06:44.334Z,101673.38
2022-10-17T20:11:49.112Z,101668.91
2022-10-17T20:16:52.276Z,101668.92
2022-10-17T20:21:54.962Z,101662.71
2022-10-17T20:26:57.663Z,101659.86
2022-10-17T20:32:00.955Z,101656.33
2022-10-17T20:37:04.374Z,101654.99
2022-10-17T20:42:08.999Z,101649.95
2022-10-17T20:47:16.164Z,101648.19
2022-10-17T20:52:19.169Z,101638.73
2022-10-17T20:57:21.900Z,101635.34
2022-10-17T21:02:24.531Z,101629.61
2022-10-17T21:07:27.267Z,101622.61
2022-10-17T21:12:36.635Z,101620.91
2022-10-17T21:17:45.953Z,101616.04
2022-10-17T21:22:48.610Z,101614.65
2022-10-17T21:27:54.504Z,101618.82
2022-10-17T21:32:57.427Z,101623.55
2022-10-17T21:38:00.535Z,101621.14
2022-10-17T21:43:03.442Z,101618.73
2022-10-17T21:48:14.482Z,101612.76
2022-10-17T21:53:37.635Z,101606.83
2022-10-17T21:58:40.881Z,101604.96
2022-10-17T22:03:46.910Z,101599.64
2022-10-17T22:08:50.034Z,101599.64
2022-10-17T22:14:03.762Z,101598.11
2022-10-17T22:19:07.599Z,101596.28
2022-10-17T22:24:12.924Z,101589.52
2022-10-17T22:29:15.613Z,101581.96
2022-10-17T22:34:18.649Z,101581.39
2022-10-17T22:39:21.325Z,101580.64
2022-10-17T22:44:23.976Z,101585.45
2022-10-17T22:49:26.693Z,101587.28
2022-10-17T22:54:29.517Z,101586.72
2022-10-17T22:59:32.458Z,101586.59
2022-10-17T23:04:35.320Z,101583.27
2022-10-17T23:09:39.054Z,101580.24
2022-10-17T23:14:43.632Z,101577.86
2022-10-17T23:19:46.379Z,101577.27
2022-10-17T23:24:49.035Z,101581.73
2022-10-17T23:29:51.693Z,101583.30
2022-10-17T23:34:54.362Z,101575.34
2022-10-17T23:39:57.085Z,101572.02
2022-10-17T23:44:59.770Z,101577.29
2022-10-17T23:50:02.723Z,101570.74
2022-10-17T23:55:06.177Z,101570.08
